Terminal Aerodrome Forecast
Issued by NWS

Home | Current Version | Previous Version | Text Only | Print | Product List | Glossary Off
Versions: 1 2 3 4 5 6 7 8 9 10 11 12 13 14 15 16 17 18 19 20

000
FTUS43 KBIS 241040 AAB
TAFJMS
TAF AMD
KJMS 241040Z 2411/2506 35011KT P6SM -RA VCSH OVC045
     FM241200 01013KT P6SM SCT035 BKN100
     FM250200 VRB04KT P6SM SKC=

USA.gov is the U.S. government's official web portal to all federal, state and local government web resources and services.